METAR Data
IDs: Format: Raw Decoded Include TAF

Data at: 0520 UTC 03 Jul 2022

METAR for:KLQK (Pickens Cnty, SC, US)
Text:KLQK 030515Z AUTO 00000KT 7SM SCT003 23/23 A3004 RMK AO2 T02250225
Temperature: 22.5°C ( 72°F)
Dewpoint: 22.5°C ( 72°F) [RH = 100%]
Pressure (altimeter):30.04 inches Hg (1017.4 mb)
Winds:calm
Visibility: 7 sm ( 11 km)
Ceiling:at least 12,000 feet AGL
Clouds: scattered clouds at 300 feet AGL
QC Flag:automated observation with no human augmentation

TAF for:KLQK (Pickens Cnty, SC, US)
Text:No data found